Time;durP1;ratioP1;P1;durP2;ratioP2;P2;SDS_P1;SDS_P2;PMS_P1;PMS_P2;Temp;Humidity;BMP_temperature;BMP_pressure;BME280_temperature;BME280_humidity;BME280_pressure;Samples;Min_cycle;Max_cycle;Signal;HPM_P1;HPM_P2
2022/01/07 00:03:06;;;;;;;0.00;0.00;;;;;;;0.74;100.00;101495.84;10498542;28;20016;-65
2022/01/07 00:08:06;;;;;;;0.00;0.00;;;;;;;0.72;100.00;101489.81;10486234;28;20049;-65
2022/01/07 00:13:07;;;;;;;0.00;0.00;;;;;;;0.71;100.00;101488.97;10461121;28;20135;-65
2022/01/07 00:18:08;;;;;;;0.00;0.00;;;;;;;0.71;100.00;101481.09;10456730;28;20031;-65
2022/01/07 00:23:08;;;;;;;0.00;0.00;;;;;;;0.69;100.00;101477.72;10482643;28;20017;-65
2022/01/07 00:28:08;;;;;;;0.00;0.00;;;;;;;0.67;100.00;101471.72;10496461;28;20020;-65
2022/01/07 00:33:09;;;;;;;0.00;0.00;;;;;;;0.68;100.00;101463.75;10495757;28;20452;-65
2022/01/07 00:38:09;;;;;;;0.10;0.10;;;;;;;0.68;100.00;101460.28;10487914;28;20360;-65
2022/01/07 00:43:09;;;;;;;0.10;0.10;;;;;;;0.66;100.00;101446.41;10453430;28;20017;-65
2022/01/07 00:48:10;;;;;;;0.10;0.10;;;;;;;0.66;100.00;101434.13;10454338;28;20029;-65
2022/01/07 00:53:10;;;;;;;0.00;0.00;;;;;;;0.68;100.00;101431.44;10454383;28;20579;-65
2022/01/07 00:58:10;;;;;;;0.00;0.00;;;;;;;0.69;100.00;101417.41;10473486;28;20021;-65
2022/01/07 01:03:11;;;;;;;0.00;0.00;;;;;;;0.72;100.00;101414.63;10453892;28;20017;-65
2022/01/07 01:08:11;;;;;;;0.00;0.00;;;;;;;0.71;100.00;101407.69;10452914;28;20464;-65
2022/01/07 01:13:12;;;;;;;0.10;0.10;;;;;;;0.75;100.00;101401.34;10453353;28;20017;-65
2022/01/07 01:18:12;;;;;;;0.00;0.00;;;;;;;0.79;100.00;101397.63;10456045;28;20033;-65
2022/01/07 01:23:12;;;;;;;0.00;0.00;;;;;;;0.83;100.00;101375.56;10452881;28;20496;-65
2022/01/07 01:28:13;;;;;;;0.00;0.00;;;;;;;0.88;100.00;101363.03;10463302;28;20549;-65
2022/01/07 01:33:13;;;;;;;0.07;0.07;;;;;;;0.91;100.00;101369.91;10493980;28;20304;-65
2022/01/07 01:43:16;;;;;;;0.00;0.00;;;;;;;0.97;100.00;101355.59;10421374;28;20810;-68
2022/01/07 01:48:16;;;;;;;0.00;0.00;;;;;;;0.99;100.00;101337.97;10430232;28;20029;-68
2022/01/07 01:53:17;;;;;;;0.00;0.00;;;;;;;1.03;100.00;101331.66;10439062;28;20029;-68
2022/01/07 01:58:18;;;;;;;0.00;0.00;;;;;;;1.06;100.00;101318.38;10422041;28;20260;-69
2022/01/07 02:03:18;;;;;;;0.03;0.03;;;;;;;1.07;100.00;101306.94;10416180;28;20024;-69
2022/01/07 02:08:19;;;;;;;0.00;0.00;;;;;;;1.08;100.00;101298.16;10431379;28;20104;-69
2022/01/07 02:13:19;;;;;;;0.00;0.00;;;;;;;1.06;100.00;101286.88;10425645;28;20013;-67
2022/01/07 02:18:20;;;;;;;0.00;0.00;;;;;;;1.10;100.00;101291.84;10432259;28;20020;-68
2022/01/07 02:23:20;;;;;;;0.00;0.00;;;;;;;1.12;100.00;101282.13;10431314;28;20021;-68
2022/01/07 02:28:21;;;;;;;0.10;0.10;;;;;;;1.11;100.00;101267.31;10439603;28;20275;-68
2022/01/07 02:33:21;;;;;;;0.00;0.00;;;;;;;1.12;100.00;101258.50;10417714;28;20769;-68
2022/01/07 02:38:21;;;;;;;0.00;0.00;;;;;;;1.15;100.00;101254.88;10438212;28;20032;-67
2022/01/07 02:43:22;;;;;;;0.00;0.00;;;;;;;1.17;100.00;101242.50;10411239;28;20021;-68
2022/01/07 02:48:22;;;;;;;0.00;0.00;;;;;;;1.20;100.00;101237.09;10439070;28;20022;-68
2022/01/07 02:53:22;;;;;;;0.00;0.00;;;;;;;1.21;100.00;101233.53;10427723;28;20259;-68
2022/01/07 02:58:22;;;;;;;0.00;0.00;;;;;;;1.22;100.00;101226.50;10422310;28;20040;-68
2022/01/07 03:03:23;;;;;;;0.00;0.00;;;;;;;1.24;100.00;101235.97;10436041;28;20032;-69
2022/01/07 03:08:23;;;;;;;0.00;0.00;;;;;;;1.26;100.00;101223.59;10424956;28;20270;-69
2022/01/07 03:13:23;;;;;;;0.00;0.00;;;;;;;1.27;100.00;101214.78;10426329;28;20074;-68
2022/01/07 03:18:24;;;;;;;0.00;0.00;;;;;;;1.28;100.00;101216.50;10412114;28;20663;-68
2022/01/07 03:23:24;;;;;;;0.10;0.10;;;;;;;1.28;100.00;101228.75;10441685;28;20021;-69
2022/01/07 03:28:25;;;;;;;0.00;0.00;;;;;;;1.26;100.00;101205.25;10414400;28;20037;-69
2022/01/07 03:33:25;;;;;;;0.00;0.00;;;;;;;1.28;100.00;101198.13;10446714;28;20426;-69
2022/01/07 03:38:26;;;;;;;0.00;0.00;;;;;;;1.30;100.00;101198.84;10424418;28;20286;-69
2022/01/07 03:43:26;;;;;;;0.00;0.00;;;;;;;1.33;100.00;101187.34;10408478;28;20075;-68
2022/01/07 03:48:26;;;;;;;0.00;0.00;;;;;;;1.35;100.00;101190.72;10442400;28;20071;-68
2022/01/07 03:53:27;;;;;;;0.10;0.10;;;;;;;1.39;100.00;101183.50;10443157;28;20742;-67
2022/01/07 03:58:27;;;;;;;0.00;0.00;;;;;;;1.41;100.00;101194.78;10419651;28;20021;-68
2022/01/07 04:03:29;;;;;;;0.00;0.00;;;;;;;1.40;100.00;101179.94;10424712;28;20447;-68
2022/01/07 04:08:29;;;;;;;0.03;0.03;;;;;;;1.32;100.00;101173.38;10436759;28;20048;-68
2022/01/07 04:13:30;;;;;;;0.00;0.00;;;;;;;1.25;100.00;101166.81;10433010;28;20029;-68
2022/01/07 04:18:30;;;;;;;0.00;0.00;;;;;;;1.18;100.00;101156.75;10452408;28;20030;-67
2022/01/07 04:23:30;;;;;;;0.00;0.00;;;;;;;1.11;100.00;101158.91;10429786;28;20276;-68
2022/01/07 04:28:31;;;;;;;0.00;0.00;;;;;;;1.04;100.00;101145.28;10451855;28;20545;-67
2022/01/07 04:33:34;;;;;;;0.00;0.00;;;;;;;0.98;100.00;101136.94;10431021;28;20017;-68
2022/01/07 04:38:34;;;;;;;0.00;0.00;;;;;;;0.92;100.00;101142.56;10441591;28;20021;-67
2022/01/07 04:43:34;;;;;;;0.00;0.00;;;;;;;0.83;100.00;101118.53;10430575;28;20059;-68
2022/01/07 04:48:35;;;;;;;0.00;0.00;;;;;;;0.84;100.00;101107.13;10444276;28;20471;-67
2022/01/07 04:53:35;;;;;;;0.00;0.00;;;;;;;0.81;100.00;101112.53;10428055;28;20025;-67
2022/01/07 04:58:35;;;;;;;0.00;0.00;;;;;;;0.73;100.00;101091.19;10422420;28;20057;-67
2022/01/07 05:03:35;;;;;;;0.00;0.00;;;;;;;0.72;100.00;101084.22;10411200;28;20028;-68
2022/01/07 05:08:36;;;;;;;0.00;0.00;;;;;;;0.66;100.00;101077.56;10432444;28;20033;-67
2022/01/07 05:13:36;;;;;;;0.00;0.00;;;;;;;0.66;100.00;101084.59;10434250;28;20036;-67
2022/01/07 05:18:36;;;;;;;0.00;0.00;;;;;;;0.61;100.00;101069.16;10424968;28;20045;-67
2022/01/07 05:23:37;;;;;;;0.00;0.00;;;;;;;0.58;100.00;101066.72;10424426;28;20280;-67
2022/01/07 05:28:37;;;;;;;0.00;0.00;;;;;;;0.55;100.00;101071.25;10428315;28;20029;-68
2022/01/07 05:33:37;;;;;;;0.00;0.00;;;;;;;0.54;100.00;101057.31;10422656;28;20260;-68
2022/01/07 05:38:38;;;;;;;0.00;0.00;;;;;;;0.53;100.00;101046.94;10428588;28;20087;-68
2022/01/07 05:43:39;;;;;;;0.00;0.00;;;;;;;0.50;100.00;101039.25;10438927;28;20027;-67
2022/01/07 05:48:39;;;;;;;0.03;0.03;;;;;;;0.49;100.00;101032.31;10430770;28;20029;-67
2022/01/07 05:53:40;;;;;;;0.00;0.00;;;;;;;0.48;100.00;101026.22;10422610;28;20384;-68
2022/01/07 05:58:40;;;;;;;0.00;0.00;;;;;;;0.49;100.00;101011.34;10430637;28;20017;-67
2022/01/07 06:03:41;;;;;;;0.00;0.00;;;;;;;0.48;100.00;101001.78;10435131;28;20517;-67
2022/01/07 06:08:41;;;;;;;0.00;0.00;;;;;;;0.47;100.00;101002.72;10430350;28;20272;-67
2022/01/07 06:13:42;;;;;;;0.00;0.00;;;;;;;0.45;100.00;100998.41;10444990;28;20018;-67
2022/01/07 06:18:54;;;;;;;0.00;0.00;;;;;;;0.47;100.00;101002.72;10429432;28;20266;-67
2022/01/07 06:23:55;;;;;;;0.00;0.00;;;;;;;0.48;100.00;100999.19;10425507;28;20121;-67
2022/01/07 06:28:55;;;;;;;0.03;0.03;;;;;;;0.47;100.00;100998.34;10430809;28;20112;-67
2022/01/07 06:33:58;;;;;;;0.00;0.00;;;;;;;0.49;100.00;100987.75;10431345;28;20025;-68
2022/01/07 06:38:58;;;;;;;0.00;0.00;;;;;;;0.51;100.00;100984.09;10428585;28;20056;-67
2022/01/07 06:43:58;;;;;;;0.00;0.00;;;;;;;0.52;100.00;100985.78;10426953;28;20072;-67
2022/01/07 06:48:59;;;;;;;0.00;0.00;;;;;;;0.54;100.00;100968.19;10432949;28;20040;-67
2022/01/07 06:53:59;;;;;;;0.00;0.00;;;;;;;0.57;100.00;100962.78;10426005;28;20032;-67
2022/01/07 06:59:00;;;;;;;0.10;0.10;;;;;;;0.60;100.00;100962.59;10427486;28;20032;-67
2022/01/07 07:04:00;;;;;;;0.00;0.00;;;;;;;0.65;100.00;100962.31;10423276;28;20083;-68
2022/01/07 07:09:03;;;;;;;0.00;0.00;;;;;;;0.70;100.00;100960.28;10430211;28;20041;-67
2022/01/07 07:14:03;;;;;;;0.10;0.10;;;;;;;0.73;100.00;100957.47;10430721;28;20025;-67
2022/01/07 07:19:04;;;;;;;0.00;0.00;;;;;;;0.76;100.00;100965.16;10431800;28;20058;-66
2022/01/07 07:24:05;;;;;;;0.00;0.00;;;;;;;0.77;100.00;100958.94;10420961;28;20072;-68
2022/01/07 07:29:06;;;;;;;0.00;0.00;;;;;;;0.81;100.00;100952.56;10424051;28;20048;-66
2022/01/07 07:44:29;;;;;;;0.00;0.00;;;;;;;0.90;100.00;100949.41;10373847;28;20048;-66
2022/01/07 07:49:30;;;;;;;0.00;0.00;;;;;;;0.94;100.00;100944.81;10351782;28;20030;-66
2022/01/07 07:54:30;;;;;;;0.00;0.00;;;;;;;0.97;100.00;100943.78;10379479;28;20064;-66
2022/01/07 07:59:30;;;;;;;0.00;0.00;;;;;;;0.97;100.00;100938.53;10380349;28;20088;-66
2022/01/07 08:04:31;;;;;;;0.00;0.00;;;;;;;1.01;100.00;100947.91;10357102;28;20765;-66
2022/01/07 08:09:36;;;;;;;0.00;0.00;;;;;;;1.01;100.00;100958.38;10362234;28;20533;-66
2022/01/07 08:19:55;;;;;;;0.00;0.00;;;;;;;0.94;100.00;100962.34;10364374;28;20082;-66
2022/01/07 08:24:56;;;;;;;0.00;0.00;;;;;;;0.88;100.00;100956.53;10363564;28;20046;-66
2022/01/07 08:29:56;;;;;;;0.00;0.00;;;;;;;0.86;100.00;100939.19;10354774;28;20076;-66
2022/01/07 08:34:58;;;;;;;0.00;0.00;;;;;;;0.87;100.00;100948.75;10370711;28;20744;-66
2022/01/07 08:39:58;;;;;;;0.00;0.00;;;;;;;0.86;100.00;100949.69;10358243;28;20030;-66
2022/01/07 08:44:58;;;;;;;0.00;0.00;;;;;;;0.84;100.00;100939.31;10364649;28;20033;-66
2022/01/07 08:49:59;;;;;;;0.10;0.10;;;;;;;0.81;100.00;100944.72;10363873;28;20038;-66
2022/01/07 08:54:59;;;;;;;0.00;0.00;;;;;;;0.75;100.00;100942.47;10357499;28;20018;-66
2022/01/07 09:00:00;;;;;;;0.00;0.00;;;;;;;0.71;100.00;100927.88;10371767;28;20030;-66
2022/01/07 09:05:00;;;;;;;0.00;0.00;;;;;;;0.67;100.00;100936.88;10368922;28;20018;-66
2022/01/07 09:10:00;;;;;;;0.00;0.00;;;;;;;0.65;100.00;100942.19;10359377;28;20034;-67
2022/01/07 09:15:01;;;;;;;0.00;0.00;;;;;;;0.66;100.00;100940.41;10352325;28;20791;-66
2022/01/07 09:20:03;;;;;;;0.00;0.00;;;;;;;0.70;100.00;100934.06;10361138;28;20267;-66
2022/01/07 09:25:05;;;;;;;0.00;0.00;;;;;;;0.73;100.00;100933.88;10358010;28;20280;-66
2022/01/07 09:30:07;;;;;;;0.00;0.00;;;;;;;0.76;100.00;100933.69;10357825;28;20482;-66
2022/01/07 09:35:08;;;;;;;0.00;0.00;;;;;;;0.80;100.00;100940.41;10357601;28;20023;-66
2022/01/07 09:40:10;;;;;;;0.00;0.00;;;;;;;0.86;100.00;100941.81;10348657;28;20116;-66
2022/01/07 09:45:10;;;;;;;0.00;0.00;;;;;;;0.89;100.00;100936.38;10357104;28;20053;-66
2022/01/07 09:50:10;;;;;;;0.00;0.00;;;;;;;0.95;100.00;100935.16;10362932;28;20064;-66
2022/01/07 09:55:11;;;;;;;0.00;0.00;;;;;;;1.01;100.00;100937.41;10349090;28;20453;-66
2022/01/07 10:00:12;;;;;;;0.00;0.00;;;;;;;1.08;100.00;100925.59;10374257;28;20284;-66
2022/01/07 10:05:16;;;;;;;0.00;0.00;;;;;;;1.12;100.00;100922.69;10352512;28;20025;-66
2022/01/07 10:10:18;;;;;;;0.00;0.00;;;;;;;1.18;100.00;100912.75;10360796;28;20018;-66
2022/01/07 10:15:33;;;;;;;0.00;0.00;;;;;;;1.20;100.00;100903.84;10350795;28;20380;-66
2022/01/07 10:20:43;;;;;;;0.00;0.00;;;;;;;1.25;100.00;100900.91;10358553;28;20034;-66
2022/01/07 10:25:47;;;;;;;0.00;0.00;;;;;;;1.27;100.00;100907.75;10365299;28;20274;-65
2022/01/07 10:30:50;;;;;;;0.00;0.00;;;;;;;1.33;100.00;100896.03;10355706;28;20040;-66
2022/01/07 10:35:52;;;;;;;0.03;0.03;;;;;;;1.38;100.00;100898.38;10368510;28;20021;-66
2022/01/07 10:40:55;;;;;;;0.03;0.03;;;;;;;1.43;100.00;100894.50;10356736;28;20018;-66
2022/01/07 10:45:58;;;;;;;0.00;0.00;;;;;;;1.49;100.00;100903.78;10348843;28;20490;-66
2022/01/07 10:50:59;;;;;;;0.00;0.00;;;;;;;1.54;100.00;100891.16;10355702;28;20024;-66
2022/01/07 10:56:10;;;;;;;0.00;0.00;;;;;;;1.58;100.00;100887.41;10364727;28;20079;-67
2022/01/07 11:01:19;;;;;;;0.00;0.00;;;;;;;1.66;100.00;100884.28;10364294;28;20018;-66
2022/01/07 11:06:21;;;;;;;0.00;0.00;;;;;;;1.71;100.00;100883.03;10358194;28;20527;-66
2022/01/07 11:11:23;;;;;;;0.00;0.00;;;;;;;1.78;100.00;100889.59;10364998;28;20033;-66
2022/01/07 11:16:23;;;;;;;0.00;0.00;;;;;;;1.85;100.00;100884.75;10358377;28;20026;-66
2022/01/07 11:21:24;;;;;;;0.00;0.00;;;;;;;1.89;100.00;100883.63;10358918;28;20428;-66
2022/01/07 11:26:24;;;;;;;0.00;0.00;;;;;;;1.93;100.00;100876.38;10361621;28;20484;-66
2022/01/07 11:31:25;;;;;;;0.00;0.00;;;;;;;1.98;100.00;100869.03;10366655;28;20026;-66
2022/01/07 11:36:38;;;;;;;0.00;0.00;;;;;;;2.10;100.00;100883.97;10371958;28;20268;-66
2022/01/07 11:41:51;;;;;;;0.00;0.00;;;;;;;2.24;100.00;100876.00;10363037;28;20018;-66
2022/01/07 11:47:12;;;;;;;0.00;0.00;;;;;;;2.45;100.00;100872.84;10357966;28;20101;-66
2022/01/07 11:52:34;;;;;;;0.00;0.00;;;;;;;2.53;100.00;100867.03;10364578;28;20026;-66
2022/01/07 11:58:11;;;;;;;0.00;0.00;;;;;;;2.69;100.00;100859.78;10359558;28;20026;-66
2022/01/07 12:03:11;;;;;;;0.00;0.00;;;;;;;2.92;100.00;100859.00;10343944;28;20034;-66
2022/01/07 12:08:11;;;;;;;0.00;0.00;;;;;;;2.93;100.00;100867.72;10370293;28;20432;-66
2022/01/07 12:13:12;;;;;;;0.00;0.00;;;;;;;2.89;100.00;100871.53;10362142;28;20062;-66
2022/01/07 12:18:12;;;;;;;0.00;0.00;;;;;;;2.91;100.00;100877.53;10364664;28;20022;-66
2022/01/07 12:23:19;;;;;;;0.00;0.00;;;;;;;2.89;100.00;100876.78;10368492;28;20013;-66
2022/01/07 12:28:21;;;;;;;0.00;0.00;;;;;;;2.92;100.00;100876.56;10365984;28;20038;-66
2022/01/07 12:33:21;;;;;;;0.00;0.00;;;;;;;2.95;100.00;100869.28;10357692;28;20037;-66
2022/01/07 12:38:22;;;;;;;0.03;0.03;;;;;;;2.98;100.00;100870.88;10366662;28;20037;-66
2022/01/07 12:43:28;;;;;;;0.00;0.00;;;;;;;3.00;100.00;100866.34;10369677;28;20023;-66
2022/01/07 12:48:41;;;;;;;0.00;0.00;;;;;;;3.07;100.00;100858.84;10353639;28;20123;-66
2022/01/07 12:53:59;;;;;;;0.00;0.00;;;;;;;3.12;100.00;100867.25;10366042;28;20036;-66
2022/01/07 12:59:17;;;;;;;0.00;0.00;;;;;;;3.09;100.00;100862.22;10353858;28;20022;-66
2022/01/07 13:04:22;;;;;;;0.00;0.00;;;;;;;3.05;100.00;100856.31;10349882;28;20026;-66
2022/01/07 13:09:25;;;;;;;0.00;0.00;;;;;;;3.00;100.00;100855.00;10364050;28;20486;-66
2022/01/07 13:14:27;;;;;;;0.00;0.00;;;;;;;3.02;100.00;100847.81;10358607;28;20381;-66
2022/01/07 13:19:27;;;;;;;0.00;0.00;;;;;;;3.01;100.00;100841.69;10366155;28;20028;-66
2022/01/07 13:24:29;;;;;;;0.00;0.00;;;;;;;3.03;100.00;100828.44;10356867;28;20586;-66
2022/01/07 13:29:31;;;;;;;0.00;0.00;;;;;;;3.07;100.00;100807.03;10348717;28;20520;-66
2022/01/07 13:34:38;;;;;;;0.00;0.00;;;;;;;3.08;100.00;100790.28;10359959;28;20018;-66
2022/01/07 13:39:47;;;;;;;0.00;0.00;;;;;;;3.08;100.00;100794.72;10358977;28;20026;-66
2022/01/07 13:44:53;;;;;;;0.00;0.00;;;;;;;3.07;100.00;100788.63;10361224;28;20029;-66
2022/01/07 13:50:22;;;;;;;0.00;0.00;;;;;;;3.12;100.00;100778.59;10365767;28;20112;-66
2022/01/07 13:55:30;;;;;;;0.03;0.03;;;;;;;3.14;100.00;100771.44;10366496;28;20389;-66
2022/01/07 14:00:30;;;;;;;0.00;0.00;;;;;;;3.18;100.00;100772.06;10354806;28;20227;-66
2022/01/07 14:05:31;;;;;;;0.00;0.00;;;;;;;3.27;100.00;100773.16;10354134;28;20026;-66
2022/01/07 14:10:34;;;;;;;0.00;0.00;;;;;;;3.26;100.00;100756.53;10359985;28;20273;-66
2022/01/07 14:15:45;;;;;;;0.00;0.00;;;;;;;3.17;100.00;100771.22;10358864;28;20014;-66
2022/01/07 14:21:06;;;;;;;0.00;0.00;;;;;;;3.00;100.00;100769.00;10356360;28;20513;-66
2022/01/07 14:26:07;;;;;;;0.00;0.00;;;;;;;2.87;100.00;100779.53;10346947;28;20512;-66
2022/01/07 14:31:08;;;;;;;0.00;0.00;;;;;;;2.80;100.00;100788.84;10346600;28;20046;-66
2022/01/07 14:36:11;;;;;;;0.00;0.00;;;;;;;2.77;100.00;100786.44;10356442;28;20022;-66
2022/01/07 14:41:11;;;;;;;0.00;0.00;;;;;;;2.70;100.00;100793.91;10359062;28;20026;-66
2022/01/07 14:46:13;;;;;;;0.00;0.00;;;;;;;2.66;100.00;100794.25;10348726;28;20026;-66
2022/01/07 14:51:13;;;;;;;0.00;0.00;;;;;;;2.66;100.00;100794.25;10353911;28;20149;-66
2022/01/07 14:56:13;;;;;;;0.00;0.00;;;;;;;2.66;100.00;100797.69;10361326;28;20101;-66
2022/01/07 15:01:14;;;;;;;0.00;0.00;;;;;;;2.68;100.00;100794.97;10352627;28;20374;-66
2022/01/07 15:06:14;;;;;;;0.00;0.00;;;;;;;2.66;100.00;100794.25;10348871;28;20472;-66
2022/01/07 15:11:14;;;;;;;0.00;0.00;;;;;;;2.66;100.00;100791.63;10354612;28;20025;-66
2022/01/07 15:16:35;;;;;;;0.00;0.00;;;;;;;2.68;100.00;100789.72;10347328;28;20022;-66
2022/01/07 15:21:37;;;;;;;0.00;0.00;;;;;;;2.70;100.00;100791.25;10358627;28;20081;-66
2022/01/07 15:26:39;;;;;;;0.00;0.00;;;;;;;2.70;100.00;100795.69;10355771;28;20392;-67
2022/01/07 15:31:40;;;;;;;0.00;0.00;;;;;;;2.70;100.00;100793.06;10350982;28;20022;-66
2022/01/07 15:36:42;;;;;;;0.00;0.00;;;;;;;2.73;100.00;100784.94;10354743;28;20026;-66
2022/01/07 15:41:43;;;;;;;0.00;0.00;;;;;;;2.77;100.00;100785.59;10344675;28;20215;-66
2022/01/07 15:46:43;;;;;;;0.00;0.00;;;;;;;2.76;100.00;100786.53;10348056;28;20423;-68
2022/01/07 15:51:44;;;;;;;0.00;0.00;;;;;;;2.75;100.00;100785.69;10365917;28;20032;-67
2022/01/07 15:56:44;;;;;;;0.00;0.00;;;;;;;2.78;100.00;100782.00;10358707;28;20107;-67
2022/01/07 16:01:44;;;;;;;0.00;0.00;;;;;;;2.81;100.00;100784.41;10369981;28;20018;-67
2022/01/07 16:06:45;;;;;;;0.00;0.00;;;;;;;2.83;100.00;100769.38;10373141;28;20352;-67
2022/01/07 16:11:45;;;;;;;0.00;0.00;;;;;;;2.81;100.00;100779.97;10336560;28;20069;-67
2022/01/07 16:16:45;;;;;;;0.00;0.00;;;;;;;2.72;100.00;100775.38;10334029;28;20023;-67
2022/01/07 16:21:46;;;;;;;0.00;0.00;;;;;;;2.56;100.00;100780.91;10350676;28;20033;-66
2022/01/07 16:26:46;;;;;;;0.00;0.00;;;;;;;2.36;100.00;100765.72;10351822;28;20296;-67
2022/01/07 16:31:46;;;;;;;0.00;0.00;;;;;;;2.18;100.00;100757.28;10347548;28;20026;-67
2022/01/07 16:36:46;;;;;;;0.00;0.00;;;;;;;2.05;100.00;100767.81;10342841;28;20279;-66
2022/01/07 16:41:47;;;;;;;0.00;0.00;;;;;;;1.95;100.00;100772.00;10334483;28;20018;-67
2022/01/07 16:46:47;;;;;;;0.00;0.00;;;;;;;1.86;100.00;100776.13;10331869;28;20065;-67
2022/01/07 16:51:47;;;;;;;0.00;0.00;;;;;;;1.78;100.00;100776.66;10367318;28;20018;-66
2022/01/07 16:56:48;;;;;;;0.00;0.00;;;;;;;1.74;100.00;100782.19;10371807;28;20092;-67
2022/01/07 17:01:48;;;;;;;0.00;0.00;;;;;;;1.77;100.00;100777.56;10371083;28;20639;-67
2022/01/07 17:06:48;;;;;;;0.00;0.00;;;;;;;1.74;100.00;100763.81;10370286;28;20624;-67
2022/01/07 17:11:49;;;;;;;0.00;0.00;;;;;;;1.64;100.00;100760.97;10335055;28;20412;-67
2022/01/07 17:16:50;;;;;;;0.00;0.00;;;;;;;1.58;100.00;100777.97;10331116;28;20752;-67
2022/01/07 17:21:50;;;;;;;0.05;0.05;;;;;;;1.56;100.00;100777.25;10329132;28;20018;-67
2022/01/07 17:26:51;;;;;;;0.00;0.00;;;;;;;1.54;100.00;100781.78;10330303;28;20117;-66
2022/01/07 17:31:51;;;;;;;0.00;0.00;;;;;;;1.47;100.00;100783.09;10330409;28;20489;-67
2022/01/07 17:36:51;;;;;;;0.03;0.03;;;;;;;1.38;100.00;100793.38;10335955;28;20021;-67
2022/01/07 17:41:51;;;;;;;0.00;0.00;;;;;;;1.27;100.00;100784.41;10403884;28;20026;-66
2022/01/07 17:46:52;;;;;;;0.10;0.10;;;;;;;1.28;100.00;100783.50;10412445;28;20033;-67
2022/01/07 17:51:52;;;;;;;0.00;0.00;;;;;;;1.41;100.00;100780.88;10411975;28;20045;-67
2022/01/07 17:56:52;;;;;;;0.00;0.00;;;;;;;1.63;100.00;100785.56;10412024;28;20260;-67
2022/01/07 18:01:53;;;;;;;0.00;0.00;;;;;;;1.82;100.00;100790.41;10411799;28;20276;-67
2022/01/07 18:06:53;;;;;;;0.00;0.00;;;;;;;1.85;100.00;100782.31;10406501;28;20060;-67
2022/01/07 18:11:53;;;;;;;0.00;0.00;;;;;;;1.78;100.00;100786.31;10370394;28;20032;-66
2022/01/07 18:16:54;;;;;;;0.00;0.00;;;;;;;1.67;100.00;100781.78;10369947;28;20485;-67
2022/01/07 18:21:54;;;;;;;0.00;0.00;;;;;;;1.58;100.00;100796.38;10370553;28;20022;-67
2022/01/07 18:26:54;;;;;;;0.00;0.00;;;;;;;1.51;100.00;100789.84;10368599;28;20363;-66
2022/01/07 18:31:55;;;;;;;0.00;0.00;;;;;;;1.42;100.00;100785.19;10369551;28;20289;-67
2022/01/07 18:36:55;;;;;;;0.00;0.00;;;;;;;1.31;100.00;100785.09;10369630;28;20668;-67
2022/01/07 18:41:55;;;;;;;0.00;0.00;;;;;;;1.22;100.00;100791.78;10369107;28;20101;-67
2022/01/07 18:46:57;;;;;;;0.00;0.00;;;;;;;1.20;100.00;100785.78;10369180;28;20048;-67
2022/01/07 18:51:57;;;;;;;0.00;0.00;;;;;;;1.19;100.00;100784.06;10369430;28;20076;-66
2022/01/07 18:56:58;;;;;;;0.00;0.00;;;;;;;1.22;100.00;100780.41;10369129;28;20444;-67
2022/01/07 19:01:58;;;;;;;0.00;0.00;;;;;;;1.21;100.00;100781.34;10369124;28;20397;-66
2022/01/07 19:06:58;;;;;;;0.00;0.00;;;;;;;1.22;100.00;100776.03;10369120;28;20029;-66
2022/01/07 19:11:59;;;;;;;0.00;0.00;;;;;;;1.30;100.00;100778.13;10368902;28;20045;-66
2022/01/07 19:16:59;;;;;;;0.00;0.00;;;;;;;1.33;100.00;100773.50;10368743;28;20524;-67
2022/01/07 19:22:00;;;;;;;0.00;0.00;;;;;;;1.37;100.00;100782.06;10368521;28;20028;-66
2022/01/07 19:27:00;;;;;;;0.00;0.00;;;;;;;1.34;100.00;100780.47;10368559;28;20041;-67
2022/01/07 19:32:00;;;;;;;0.00;0.00;;;;;;;1.41;100.00;100788.75;10368280;28;20022;-66
2022/01/07 19:37:01;;;;;;;0.00;0.00;;;;;;;1.46;100.00;100777.97;10372881;28;20017;-66
2022/01/07 19:42:01;;;;;;;0.00;0.00;;;;;;;1.45;100.00;100782.34;10404797;28;20028;-67
2022/01/07 19:47:02;;;;;;;0.03;0.03;;;;;;;1.45;100.00;100786.78;10416911;28;20030;-67
2022/01/07 19:52:04;;;;;;;0.00;0.00;;;;;;;1.48;100.00;100787.41;10417159;28;20021;-67
2022/01/07 19:57:04;;;;;;;0.00;0.00;;;;;;;1.49;100.00;100778.59;10416573;28;20435;-67
2022/01/07 20:02:04;;;;;;;0.00;0.00;;;;;;;1.47;100.00;100780.47;10416871;28;20075;-67
2022/01/07 20:07:06;;;;;;;0.00;0.00;;;;;;;1.48;100.00;100776.91;10409697;28;20083;-67
2022/01/07 20:12:06;;;;;;;0.00;0.00;;;;;;;1.48;100.00;100765.56;10375145;28;20108;-66
2022/01/07 20:17:07;;;;;;;0.00;0.00;;;;;;;1.54;100.00;100771.28;10375003;28;20106;-67
2022/01/07 20:22:07;;;;;;;0.00;0.00;;;;;;;1.62;100.00;100762.88;10375433;28;20026;-67
2022/01/07 20:27:08;;;;;;;0.00;0.00;;;;;;;1.75;100.00;100770.78;10374547;28;20041;-67
2022/01/07 20:32:08;;;;;;;0.00;0.00;;;;;;;1.83;100.00;100772.84;10374443;28;20034;-66
2022/01/07 20:37:08;;;;;;;0.00;0.00;;;;;;;1.90;100.00;100776.78;10373799;28;20029;-67
2022/01/07 20:42:09;;;;;;;0.00;0.00;;;;;;;1.96;100.00;100778.97;10373907;28;20120;-67
2022/01/07 20:47:09;;;;;;;0.00;0.00;;;;;;;1.96;100.00;100764.03;10372113;28;20446;-67
2022/01/07 20:52:09;;;;;;;0.00;0.00;;;;;;;1.93;100.00;100760.78;10374200;28;20044;-67
2022/01/07 20:57:10;;;;;;;0.00;0.00;;;;;;;1.92;100.00;100764.34;10372995;28;20279;-67
2022/01/07 21:02:10;;;;;;;0.00;0.00;;;;;;;1.87;100.00;100756.81;10373301;28;20064;-67
2022/01/07 21:07:11;;;;;;;0.00;0.00;;;;;;;1.76;100.00;100748.81;10371844;28;20056;-67
2022/01/07 21:12:11;;;;;;;0.00;0.00;;;;;;;1.65;100.00;100754.78;10372671;28;20399;-67
2022/01/07 21:17:11;;;;;;;0.00;0.00;;;;;;;1.54;100.00;100750.28;10372557;28;20115;-67
2022/01/07 21:22:12;;;;;;;0.00;0.00;;;;;;;1.41;100.00;100753.81;10372410;28;20017;-67
2022/01/07 21:27:12;;;;;;;0.00;0.00;;;;;;;1.28;100.00;100757.25;10372754;28;20040;-67
2022/01/07 21:32:12;;;;;;;0.00;0.00;;;;;;;1.16;100.00;100752.78;10372223;28;20384;-67
2022/01/07 21:37:13;;;;;;;0.10;0.10;;;;;;;1.10;100.00;100761.06;10371309;28;20087;-67
2022/01/07 21:42:13;;;;;;;0.00;0.00;;;;;;;1.03;100.00;100765.88;10371170;28;20751;-67
2022/01/07 21:47:13;;;;;;;0.10;0.10;;;;;;;1.00;100.00;100754.75;10371388;28;20356;-67
2022/01/07 21:52:15;;;;;;;0.00;0.00;;;;;;;0.90;100.00;100757.97;10371711;28;20300;-66
2022/01/07 21:57:16;;;;;;;0.10;0.10;;;;;;;0.83;100.00;100761.91;10370343;28;20034;-67
2022/01/07 22:02:17;;;;;;;0.00;0.00;;;;;;;0.79;100.00;100754.34;10370978;28;20022;-67
2022/01/07 22:07:17;;;;;;;0.08;0.08;;;;;;;0.73;100.00;100750.34;10370699;28;20030;-67
2022/01/07 22:12:19;;;;;;;0.00;0.00;;;;;;;0.71;100.00;100754.81;10409397;28;20446;-67
2022/01/07 22:17:20;;;;;;;0.00;0.00;;;;;;;0.68;100.00;100762.88;10411101;28;20048;-67
2022/01/07 22:22:20;;;;;;;0.00;0.00;;;;;;;0.66;100.00;100756.91;10411043;28;20117;-67
2022/01/07 22:27:20;;;;;;;0.10;0.10;;;;;;;0.60;100.00;100745.00;10411228;28;20033;-66
2022/01/07 22:32:21;;;;;;;0.00;0.00;;;;;;;0.58;100.00;100753.91;10373762;28;20322;-67
2022/01/07 22:37:21;;;;;;;0.00;0.00;;;;;;;0.56;100.00;100768.91;10329816;28;20053;-66
2022/01/07 22:42:23;;;;;;;0.00;0.00;;;;;;;0.50;100.00;100764.06;10328969;28;20036;-66
2022/01/07 22:47:23;;;;;;;0.00;0.00;;;;;;;0.49;100.00;100760.56;10327364;28;20042;-67
2022/01/07 22:52:23;;;;;;;0.00;0.00;;;;;;;0.47;100.00;100757.22;10327546;28;20022;-66
2022/01/07 22:57:24;;;;;;;0.03;0.03;;;;;;;0.42;100.00;100754.88;10327249;28;20038;-66
2022/01/07 23:02:24;;;;;;;0.00;0.00;;;;;;;0.39;100.00;100755.06;10327451;28;20288;-66
2022/01/07 23:07:25;;;;;;;0.10;0.10;;;;;;;0.30;100.00;100739.94;10328811;28;20547;-66
2022/01/07 23:12:27;;;;;;;0.10;0.10;;;;;;;0.25;100.00;100736.75;10328006;28;20396;-66
2022/01/07 23:17:27;;;;;;;0.00;0.00;;;;;;;0.21;100.00;100749.19;10326577;28;20473;-67
2022/01/07 23:22:28;;;;;;;0.00;0.00;;;;;;;0.17;100.00;100736.38;10326992;28;20026;-66
2022/01/07 23:27:29;;;;;;;0.00;0.00;;;;;;;0.10;100.00;100746.41;10326692;28;20038;-66